createdAt,value
2019-04-30T00:01:33.497Z,99.20
2019-04-30T00:04:13.296Z,99.10
2019-04-30T00:06:42.598Z,98.70
2019-04-30T00:09:17.095Z,99.00
2019-04-30T00:11:46.059Z,98.90
2019-04-30T00:14:16.757Z,98.60
2019-04-30T00:16:46.057Z,98.80
2019-04-30T00:19:19.441Z,98.30
2019-04-30T00:21:50.252Z,99.00
2019-04-30T00:24:17.522Z,99.10
2019-04-30T00:26:52.017Z,98.90
2019-04-30T00:29:26.410Z,99.20
2019-04-30T00:31:49.112Z,98.70
2019-04-30T00:34:18.465Z,98.60
2019-04-30T00:36:47.847Z,98.40
2019-04-30T00:39:27.222Z,98.80
2019-04-30T00:41:56.835Z,98.50
2019-04-30T00:44:28.271Z,98.20
2019-04-30T00:47:00.705Z,98.50
2019-04-30T00:49:28.444Z,98.20
2019-04-30T00:51:58.326Z,98.30
2019-04-30T00:54:30.660Z,98.10
2019-04-30T00:57:04.417Z,97.70
2019-04-30T00:59:30.048Z,98.40
2019-04-30T01:02:05.962Z,98.90
2019-04-30T01:04:37.721Z,98.70
2019-04-30T01:07:08.796Z,98.60
2019-04-30T01:09:39.656Z,98.00
2019-04-30T01:12:09.451Z,98.10
2019-04-30T01:14:40.416Z,98.20
2019-04-30T01:17:12.326Z,98.70
2019-04-30T01:19:41.300Z,99.00
2019-04-30T01:22:10.675Z,99.40
2019-04-30T01:24:40.060Z,99.10
2019-04-30T01:27:10.608Z,99.10
2019-04-30T01:29:44.091Z,98.70
2019-04-30T01:32:17.602Z,98.50
2019-04-30T01:34:44.211Z,98.70
2019-04-30T01:37:14.622Z,99.30
2019-04-30T01:39:44.917Z,99.70
2019-04-30T01:42:14.312Z,99.90
2019-04-30T01:44:50.475Z,99.40
2019-04-30T01:47:14.656Z,99.70
2019-04-30T01:49:45.129Z,99.30
2019-04-30T01:52:14.455Z,99.20
2019-04-30T01:54:43.774Z,99.50
2019-04-30T01:57:19.241Z,99.60
2019-04-30T02:00:02.274Z,99.50
2019-04-30T02:02:34.628Z,99.80
2019-04-30T02:05:08.905Z,99.90
2019-04-30T02:07:40.153Z,99.90
2019-04-30T02:10:09.855Z,99.80
2019-04-30T02:12:39.324Z,99.90
2019-04-30T02:15:09.533Z,99.80
2019-04-30T02:17:39.018Z,99.90
2019-04-30T02:20:10.366Z,99.90
2019-04-30T02:22:39.682Z,99.90
2019-04-30T02:25:09.936Z,99.90
2019-04-30T02:27:39.280Z,99.90
2019-04-30T02:30:11.074Z,99.90
2019-04-30T02:32:40.397Z,99.90
2019-04-30T02:35:14.124Z,99.90
2019-04-30T02:38:01.436Z,99.90
2019-04-30T02:40:33.934Z,99.90
2019-04-30T02:43:03.848Z,99.90
2019-04-30T02:45:35.425Z,99.90
2019-04-30T02:48:05.372Z,99.90
2019-04-30T02:50:35.530Z,99.90
2019-04-30T02:53:09.722Z,99.90
2019-04-30T02:55:45.400Z,99.90
2019-04-30T02:58:14.708Z,99.90
2019-04-30T03:00:44.038Z,99.90
2019-04-30T03:03:13.340Z,99.90
2019-04-30T03:05:42.674Z,99.90
2019-04-30T03:08:11.989Z,99.90
2019-04-30T03:10:41.318Z,99.90
2019-04-30T03:13:10.647Z,99.90
2019-04-30T03:15:39.972Z,99.90
2019-04-30T03:18:23.087Z,99.90
2019-04-30T03:20:52.661Z,99.90
2019-04-30T03:23:22.074Z,99.90
2019-04-30T03:25:51.378Z,99.90
2019-04-30T03:28:20.780Z,99.90
2019-04-30T03:30:56.167Z,99.90
2019-04-30T03:33:23.076Z,99.90
2019-04-30T03:35:54.143Z,99.90
2019-04-30T03:38:23.791Z,99.90
2019-04-30T03:40:53.288Z,99.90
2019-04-30T03:43:22.611Z,99.90
2019-04-30T03:45:51.923Z,99.90
2019-04-30T03:48:21.250Z,99.90
2019-04-30T03:50:56.682Z,99.90
2019-04-30T03:53:21.589Z,99.90
2019-04-30T03:55:50.946Z,99.90
2019-04-30T03:58:21.484Z,99.90
2019-04-30T04:00:53.728Z,99.90
2019-04-30T04:03:24.100Z,99.90
2019-04-30T04:06:00.750Z,99.90
2019-04-30T04:08:39.131Z,99.90
2019-04-30T04:11:10.329Z,99.90
2019-04-30T04:13:40.025Z,99.90
2019-04-30T04:16:10.511Z,99.90
2019-04-30T04:18:40.336Z,99.90
2019-04-30T04:21:16.504Z,99.90
2019-04-30T04:23:40.844Z,99.90
2019-04-30T04:26:10.172Z,99.90
2019-04-30T04:28:43.241Z,99.90
2019-04-30T04:31:10.573Z,99.90
2019-04-30T04:33:39.875Z,99.90
2019-04-30T04:36:09.547Z,99.90
2019-04-30T04:38:40.348Z,99.90
2019-04-30T04:41:10.397Z,99.90
2019-04-30T04:43:40.266Z,99.90
2019-04-30T04:46:09.793Z,99.90
2019-04-30T04:48:39.563Z,99.90
2019-04-30T04:51:19.814Z,99.90
2019-04-30T04:53:40.281Z,99.90
2019-04-30T04:56:10.210Z,99.90
2019-04-30T04:58:40.222Z,99.90
2019-04-30T05:01:11.853Z,99.90
2019-04-30T05:03:40.844Z,99.90
2019-04-30T05:06:11.832Z,99.90
2019-04-30T05:08:41.381Z,99.90
2019-04-30T05:11:10.784Z,99.90
2019-04-30T05:13:40.145Z,99.90
2019-04-30T05:16:09.508Z,99.90
2019-04-30T05:18:39.172Z,99.90
2019-04-30T05:21:08.959Z,99.90
2019-04-30T05:23:41.118Z,99.90
2019-04-30T05:26:11.077Z,99.90
2019-04-30T05:28:40.609Z,99.90
2019-04-30T05:31:09.912Z,99.90
2019-04-30T05:33:39.241Z,99.90
2019-04-30T05:36:09.345Z,99.90
2019-04-30T05:38:39.812Z,99.90
2019-04-30T05:41:09.409Z,99.90
2019-04-30T05:43:38.839Z,99.90
2019-04-30T05:46:10.794Z,99.90
2019-04-30T05:48:39.766Z,99.90
2019-04-30T05:51:10.332Z,99.90
2019-04-30T05:53:39.648Z,99.90
2019-04-30T05:56:09.527Z,99.90
2019-04-30T05:58:39.813Z,99.90
2019-04-30T06:01:09.790Z,99.90
2019-04-30T06:03:40.522Z,99.90
2019-04-30T06:06:11.455Z,99.90
2019-04-30T06:08:45.329Z,99.90
2019-04-30T06:11:19.313Z,99.90
2019-04-30T06:13:53.316Z,99.90
2019-04-30T06:16:24.436Z,99.90
2019-04-30T06:18:53.913Z,99.90
2019-04-30T06:21:23.292Z,99.90
2019-04-30T06:23:52.753Z,99.90
2019-04-30T06:26:22.300Z,99.90
2019-04-30T06:28:51.715Z,99.90
2019-04-30T06:31:31.902Z,99.90
2019-04-30T06:33:52.472Z,99.90
2019-04-30T06:36:21.852Z,99.90
2019-04-30T06:38:51.200Z,99.90
2019-04-30T06:41:20.512Z,99.90
2019-04-30T06:43:50.372Z,99.90
2019-04-30T06:46:19.746Z,99.90
2019-04-30T06:48:51.103Z,99.90
2019-04-30T06:51:21.253Z,99.90
2019-04-30T06:53:51.366Z,99.90
2019-04-30T06:56:20.787Z,99.90
2019-04-30T06:58:52.603Z,99.90
2019-04-30T07:01:23.727Z,99.90
2019-04-30T07:03:53.209Z,99.90
2019-04-30T07:06:29.605Z,99.90
2019-04-30T07:08:59.654Z,99.90
2019-04-30T07:11:49.334Z,99.90
2019-04-30T07:14:19.537Z,99.90
2019-04-30T07:16:49.491Z,99.90
2019-04-30T07:19:29.950Z,99.90
2019-04-30T07:21:49.939Z,99.90
2019-04-30T07:24:20.972Z,99.90
2019-04-30T07:26:54.682Z,99.90
2019-04-30T07:29:21.488Z,99.90
2019-04-30T07:31:51.668Z,99.90
2019-04-30T07:34:21.320Z,99.90
2019-04-30T07:37:10.424Z,99.90
2019-04-30T07:39:23.568Z,99.90
2019-04-30T07:41:52.748Z,99.90
2019-04-30T07:46:53.079Z,99.80
2019-04-30T07:49:22.408Z,99.90
2019-04-30T07:51:52.877Z,99.90
2019-04-30T07:54:22.736Z,99.90
2019-04-30T07:56:52.068Z,99.90
2019-04-30T07:59:21.490Z,99.90
2019-04-30T08:02:04.058Z,99.90
2019-04-30T08:04:29.287Z,99.90
2019-04-30T08:07:00.258Z,99.90
2019-04-30T08:09:36.969Z,99.90
2019-04-30T08:09:39.228Z,99.90
2019-04-30T08:12:01.091Z,99.90
2019-04-30T08:14:30.603Z,99.60
2019-04-30T08:16:59.984Z,99.60
2019-04-30T08:19:30.389Z,99.50
2019-04-30T08:22:00.816Z,99.20
2019-04-30T08:24:30.213Z,99.10
2019-04-30T08:27:01.315Z,99.30
2019-04-30T08:29:30.716Z,99.30
2019-04-30T08:32:00.045Z,99.20
2019-04-30T08:34:29.385Z,99.30
2019-04-30T08:36:59.423Z,99.20
2019-04-30T08:39:31.624Z,99.50
2019-04-30T08:42:00.070Z,99.90
2019-04-30T08:44:29.716Z,99.30
2019-04-30T08:47:00.100Z,99.60
2019-04-30T08:49:30.410Z,99.70
2019-04-30T08:52:00.260Z,99.60
2019-04-30T08:54:29.616Z,99.00
2019-04-30T08:56:59.536Z,99.20
2019-04-30T08:59:29.560Z,99.90
2019-04-30T09:02:12.277Z,99.60
2019-04-30T09:04:32.237Z,99.80
2019-04-30T09:07:01.537Z,99.90
2019-04-30T09:09:30.937Z,99.70
2019-04-30T09:12:00.239Z,99.10
2019-04-30T09:14:29.963Z,98.80
2019-04-30T09:16:59.693Z,99.40
2019-04-30T09:19:29.746Z,99.50
2019-04-30T09:21:59.390Z,99.70
2019-04-30T09:24:30.688Z,99.40
2019-04-30T09:26:59.717Z,99.40
2019-04-30T09:29:29.391Z,98.90
2019-04-30T09:31:59.383Z,98.70
2019-04-30T09:34:29.246Z,98.40
2019-04-30T09:36:59.334Z,98.60
2019-04-30T09:39:29.529Z,98.20
2019-04-30T09:41:59.680Z,98.70
2019-04-30T09:44:30.885Z,97.50
2019-04-30T09:47:00.353Z,98.20
2019-04-30T09:49:29.698Z,97.00
2019-04-30T09:51:59.695Z,96.20
2019-04-30T09:54:29.907Z,97.40
2019-04-30T09:57:00.432Z,97.10
2019-04-30T09:59:29.767Z,95.70
2019-04-30T10:01:59.108Z,95.60
2019-04-30T10:04:30.290Z,95.70
2019-04-30T10:06:59.625Z,96.20
2019-04-30T10:09:29.487Z,96.00
2019-04-30T10:12:12.558Z,96.80
2019-04-30T10:14:41.937Z,96.10
2019-04-30T10:17:29.772Z,96.30
2019-04-30T10:19:59.176Z,95.80
2019-04-30T10:22:28.487Z,96.40
2019-04-30T10:24:59.669Z,95.60
2019-04-30T10:27:29.491Z,95.90
2019-04-30T10:29:59.586Z,95.70
2019-04-30T10:32:29.981Z,95.20
2019-04-30T10:34:58.754Z,95.50
2019-04-30T10:37:28.718Z,94.60
2019-04-30T10:39:59.744Z,95.70
2019-04-30T10:42:29.289Z,94.80
2019-04-30T10:45:00.287Z,95.60
2019-04-30T10:47:32.491Z,94.50
2019-04-30T10:50:00.781Z,94.50
2019-04-30T10:52:30.106Z,93.80
2019-04-30T10:54:59.642Z,94.30
2019-04-30T10:57:29.086Z,95.20
2019-04-30T10:59:58.769Z,95.10
2019-04-30T11:02:28.773Z,95.20
2019-04-30T11:04:59.237Z,95.10
2019-04-30T11:07:28.905Z,95.20
2019-04-30T11:09:58.876Z,95.00
2019-04-30T11:12:29.237Z,94.30
2019-04-30T11:14:58.828Z,95.20
2019-04-30T11:17:30.075Z,95.10
2019-04-30T11:19:59.501Z,95.30
2019-04-30T11:22:29.179Z,96.10
2019-04-30T11:25:02.602Z,95.80
2019-04-30T11:27:32.190Z,95.80
2019-04-30T11:30:04.045Z,95.10
2019-04-30T11:32:33.267Z,94.60
2019-04-30T11:35:03.065Z,94.40
2019-04-30T11:37:32.411Z,94.50
2019-04-30T11:40:01.792Z,94.00
2019-04-30T11:42:32.375Z,94.60
2019-04-30T11:45:01.880Z,93.80
2019-04-30T11:47:32.925Z,92.10
2019-04-30T11:50:02.609Z,92.40
2019-04-30T11:52:32.187Z,92.50
2019-04-30T11:55:01.632Z,92.30
2019-04-30T11:57:31.208Z,92.50
2019-04-30T12:00:00.540Z,91.80
2019-04-30T12:02:33.161Z,92.30
2019-04-30T12:05:05.184Z,93.60
2019-04-30T12:07:38.272Z,93.00
2019-04-30T12:10:13.165Z,91.70
2019-04-30T12:12:43.613Z,91.10
2019-04-30T12:15:12.952Z,90.60
2019-04-30T12:17:42.276Z,90.80
2019-04-30T12:20:12.176Z,86.20
2019-04-30T12:22:41.480Z,87.60
2019-04-30T12:25:11.156Z,86.90
2019-04-30T12:27:40.545Z,86.40
2019-04-30T12:30:10.713Z,84.80
2019-04-30T12:32:40.049Z,81.80
2019-04-30T12:35:11.272Z,74.90
2019-04-30T12:37:41.680Z,72.60
2019-04-30T12:40:25.819Z,64.80
2019-04-30T12:42:42.327Z,62.00
2019-04-30T12:45:12.009Z,63.80
2019-04-30T12:47:45.679Z,68.90
2019-04-30T12:50:51.618Z,71.10
2019-04-30T12:53:28.951Z,73.80
2019-04-30T12:56:02.865Z,73.10
2019-04-30T12:58:32.274Z,76.50
2019-04-30T13:01:01.725Z,76.70
2019-04-30T13:03:31.077Z,80.50
2019-04-30T13:06:01.609Z,80.30
2019-04-30T13:08:31.933Z,82.30
2019-04-30T13:11:02.284Z,84.30
2019-04-30T13:13:32.673Z,85.50
2019-04-30T13:16:01.728Z,85.20
2019-04-30T13:18:30.980Z,83.20
2019-04-30T13:23:09.733Z,85.00
2019-04-30T13:25:48.973Z,84.90
2019-04-30T13:28:11.883Z,78.50
2019-04-30T13:30:42.271Z,74.90
2019-04-30T13:33:20.420Z,75.70
2019-04-30T13:35:49.583Z,75.20
2019-04-30T13:38:20.559Z,73.20
2019-04-30T13:40:53.960Z,76.40
2019-04-30T13:43:39.935Z,77.90
2019-04-30T13:46:08.615Z,78.20
2019-04-30T13:48:38.024Z,74.40
2019-04-30T13:51:07.332Z,70.90
2019-04-30T13:53:36.660Z,69.20
2019-04-30T13:56:06.047Z,67.90
2019-04-30T13:58:35.380Z,70.70
2019-04-30T14:01:05.948Z,72.20
2019-04-30T14:03:39.818Z,73.10
2019-04-30T14:06:10.806Z,74.80
2019-04-30T14:08:53.611Z,77.00
2019-04-30T14:11:22.990Z,77.20
2019-04-30T14:13:52.393Z,76.60
2019-04-30T14:16:22.257Z,77.30
2019-04-30T14:18:51.661Z,77.50
2019-04-30T14:21:32.331Z,76.00
2019-04-30T14:23:52.071Z,72.30
2019-04-30T14:26:21.475Z,68.90
2019-04-30T14:28:50.796Z,71.60
2019-04-30T14:31:20.858Z,67.70
2019-04-30T14:33:51.377Z,69.80
2019-04-30T14:36:20.756Z,72.60
2019-04-30T14:38:50.444Z,70.70
2019-04-30T14:41:20.237Z,71.20
2019-04-30T14:43:55.017Z,72.60
2019-04-30T14:46:26.681Z,71.30
2019-04-30T14:49:15.520Z,70.90
2019-04-30T14:51:45.655Z,68.70
2019-04-30T14:54:22.738Z,64.70
2019-04-30T14:56:53.772Z,59.30
2019-04-30T14:59:33.990Z,59.20
2019-04-30T15:02:08.897Z,58.70
2019-04-30T15:04:39.314Z,57.70
2019-04-30T15:07:09.711Z,55.40
2019-04-30T15:09:39.391Z,49.50
2019-04-30T15:12:09.720Z,50.60
2019-04-30T15:14:40.903Z,51.20
2019-04-30T15:17:10.381Z,51.50
2019-04-30T15:19:39.799Z,54.10
2019-04-30T15:22:09.187Z,55.90
2019-04-30T15:24:40.555Z,58.40
2019-04-30T15:27:09.899Z,59.30
2019-04-30T15:29:39.373Z,60.70
2019-04-30T15:32:08.809Z,59.10
2019-04-30T15:34:40.888Z,55.10
2019-04-30T15:37:19.248Z,57.40
2019-04-30T15:39:41.042Z,57.80
2019-04-30T15:42:10.750Z,60.60
2019-04-30T15:44:42.812Z,63.50
2019-04-30T15:47:11.604Z,59.50
2019-04-30T15:49:41.023Z,55.70
2019-04-30T15:52:10.983Z,53.40
2019-04-30T15:54:40.523Z,52.90
2019-04-30T15:57:09.864Z,54.30
2019-04-30T15:59:41.093Z,56.10
2019-04-30T16:02:18.808Z,58.40
2019-04-30T16:04:52.925Z,57.80
2019-04-30T16:07:22.311Z,59.30
2019-04-30T16:09:59.248Z,58.70
2019-04-30T16:12:39.268Z,56.90
2019-04-30T16:15:10.054Z,58.00
2019-04-30T16:17:41.073Z,59.80
2019-04-30T16:20:10.545Z,59.70
2019-04-30T16:22:40.007Z,60.50
2019-04-30T16:25:09.579Z,61.90
2019-04-30T16:27:39.067Z,62.40
2019-04-30T16:30:09.559Z,61.90
2019-04-30T16:32:40.244Z,59.60
2019-04-30T16:35:09.904Z,62.80
2019-04-30T16:37:39.275Z,63.20
2019-04-30T16:40:10.416Z,61.20
2019-04-30T16:42:39.839Z,59.90
2019-04-30T16:45:09.634Z,61.30
2019-04-30T16:47:39.042Z,63.30
2019-04-30T16:50:09.113Z,62.60
2019-04-30T16:52:39.356Z,64.00
2019-04-30T16:55:13.154Z,65.20
2019-04-30T16:57:45.045Z,64.40
2019-04-30T17:00:16.758Z,68.00
2019-04-30T17:02:49.390Z,70.30
2019-04-30T17:05:25.949Z,72.00
2019-04-30T17:08:02.616Z,72.80
2019-04-30T17:10:39.616Z,72.30
2019-04-30T17:13:16.142Z,71.60
2019-04-30T17:15:47.476Z,72.90
2019-04-30T17:18:18.921Z,72.80
2019-04-30T17:20:49.125Z,73.30
2019-04-30T17:23:19.330Z,73.50
2019-04-30T17:25:48.887Z,74.90
2019-04-30T17:28:18.841Z,74.20
2019-04-30T17:30:49.134Z,76.80
2019-04-30T17:33:18.722Z,78.00
2019-04-30T17:35:49.746Z,76.30
2019-04-30T17:38:19.248Z,77.60
2019-04-30T17:40:49.703Z,80.70
2019-04-30T17:43:18.479Z,81.70
2019-04-30T17:45:49.411Z,81.60
2019-04-30T17:48:19.158Z,80.60
2019-04-30T17:50:49.807Z,82.20
2019-04-30T17:53:19.300Z,83.80
2019-04-30T17:55:49.114Z,82.10
2019-04-30T17:58:20.623Z,83.70
2019-04-30T18:00:51.283Z,83.90
2019-04-30T18:03:20.688Z,85.90
2019-04-30T18:05:50.347Z,84.90
2019-04-30T18:08:19.956Z,87.20
2019-04-30T18:10:49.571Z,86.80
2019-04-30T18:13:18.989Z,87.10
2019-04-30T18:15:49.321Z,87.40
2019-04-30T18:18:20.308Z,87.30
2019-04-30T18:20:56.834Z,87.30
2019-04-30T18:23:43.353Z,87.80
2019-04-30T18:26:14.306Z,89.40
2019-04-30T18:28:43.660Z,90.60
2019-04-30T18:31:13.079Z,91.00
2019-04-30T18:33:42.416Z,91.00
2019-04-30T18:36:11.723Z,90.90
2019-04-30T18:38:41.067Z,90.70
2019-04-30T18:41:10.612Z,90.60
2019-04-30T18:43:40.513Z,90.70
2019-04-30T18:46:10.840Z,90.80
2019-04-30T18:48:40.446Z,91.20
2019-04-30T18:51:29.921Z,91.30
2019-04-30T18:53:40.996Z,92.20
2019-04-30T18:56:14.446Z,92.40
2019-04-30T18:58:43.084Z,92.40
2019-04-30T19:01:13.185Z,92.70
2019-04-30T19:03:42.845Z,92.80
2019-04-30T19:06:22.987Z,92.90
2019-04-30T19:09:02.691Z,93.00
2019-04-30T19:11:49.355Z,92.70
2019-04-30T19:14:35.429Z,93.00
2019-04-30T19:17:06.652Z,93.00
2019-04-30T19:19:43.746Z,93.20
2019-04-30T19:22:14.237Z,93.20
2019-04-30T19:24:55.692Z,93.40
2019-04-30T19:27:14.701Z,93.70
2019-04-30T19:29:44.028Z,93.50
2019-04-30T19:32:13.381Z,93.40
2019-04-30T19:34:42.790Z,93.50
2019-04-30T19:37:12.161Z,93.80
2019-04-30T19:39:41.608Z,94.20
2019-04-30T19:42:10.922Z,93.80
2019-04-30T19:44:40.334Z,94.30
2019-04-30T19:47:10.109Z,94.30
2019-04-30T19:49:41.561Z,94.50
2019-04-30T19:52:11.814Z,94.60
2019-04-30T19:54:40.886Z,94.70
2019-04-30T19:57:10.318Z,95.00
2019-04-30T19:59:39.716Z,95.00
2019-04-30T20:02:10.709Z,95.10
2019-04-30T20:04:42.135Z,95.20
2019-04-30T20:07:11.128Z,95.40
2019-04-30T20:09:43.002Z,95.90
2019-04-30T20:12:11.474Z,96.00
2019-04-30T20:14:40.968Z,96.10
2019-04-30T20:17:13.068Z,95.90
2019-04-30T20:19:41.533Z,95.80
2019-04-30T20:22:11.103Z,95.60
2019-04-30T20:24:40.511Z,95.90
2019-04-30T20:27:10.390Z,96.60
2019-04-30T20:29:40.997Z,96.50
2019-04-30T20:32:10.936Z,96.40
2019-04-30T20:34:40.604Z,96.20
2019-04-30T20:37:09.942Z,96.10
2019-04-30T20:39:43.736Z,96.30
2019-04-30T20:42:13.110Z,96.00
2019-04-30T20:44:42.448Z,96.00
2019-04-30T20:47:11.749Z,95.90
2019-04-30T20:49:41.071Z,96.40
2019-04-30T20:52:10.400Z,96.30
2019-04-30T20:54:39.782Z,96.50
2019-04-30T20:57:09.088Z,96.60
2019-04-30T20:59:38.828Z,96.30
2019-04-30T21:02:08.376Z,96.50
2019-04-30T21:04:37.776Z,96.20
2019-04-30T21:07:07.096Z,96.70
2019-04-30T21:09:38.169Z,97.00
2019-04-30T21:12:08.999Z,97.30
2019-04-30T21:14:40.391Z,98.00
2019-04-30T21:17:09.471Z,98.00
2019-04-30T21:19:38.815Z,98.10
2019-04-30T21:22:09.525Z,97.90
2019-04-30T21:24:39.115Z,98.00
2019-04-30T21:27:08.412Z,97.50
2019-04-30T21:29:39.131Z,97.40
2019-04-30T21:32:09.470Z,97.20
2019-04-30T21:34:40.428Z,97.40
2019-04-30T21:37:09.983Z,97.40
2019-04-30T21:39:39.323Z,97.30
2019-04-30T21:42:09.272Z,97.60
2019-04-30T21:44:39.981Z,97.40
2019-04-30T21:47:09.367Z,97.50
2019-04-30T21:49:38.698Z,97.50
2019-04-30T21:52:08.075Z,97.30
2019-04-30T21:54:38.770Z,97.30
2019-04-30T21:57:07.440Z,97.30
2019-04-30T21:59:38.727Z,97.30
2019-04-30T22:02:08.197Z,97.90
2019-04-30T22:04:37.566Z,97.60
2019-04-30T22:07:07.034Z,97.50
2019-04-30T22:09:36.384Z,97.60
2019-04-30T22:12:05.783Z,97.70
2019-04-30T22:14:35.169Z,97.60
2019-04-30T22:17:04.605Z,98.00
2019-04-30T22:19:33.987Z,97.30
2019-04-30T22:22:03.461Z,97.40
2019-04-30T22:24:32.804Z,97.60
2019-04-30T22:27:02.142Z,97.50
2019-04-30T22:29:39.295Z,97.30
2019-04-30T22:32:02.535Z,97.10
2019-04-30T22:34:31.901Z,97.40
2019-04-30T22:37:02.296Z,97.50
2019-04-30T22:39:36.172Z,97.50
2019-04-30T22:42:30.314Z,97.40
2019-04-30T22:45:01.990Z,97.40
2019-04-30T22:47:30.677Z,97.50
2019-04-30T22:49:59.903Z,97.40
2019-04-30T22:52:29.262Z,97.60
2019-04-30T22:54:58.640Z,97.60
2019-04-30T22:57:27.980Z,97.60
2019-04-30T22:59:57.284Z,97.90
2019-04-30T23:02:28.281Z,98.20
2019-04-30T23:04:58.515Z,97.70
2019-04-30T23:07:27.834Z,97.80
2019-04-30T23:09:57.167Z,98.20
2019-04-30T23:12:26.889Z,97.80
2019-04-30T23:14:56.193Z,97.70
2019-04-30T23:17:25.667Z,97.80
2019-04-30T23:19:54.999Z,97.60
2019-04-30T23:22:24.369Z,97.50
2019-04-30T23:24:53.687Z,97.70
2019-04-30T23:27:22.995Z,97.60
2019-04-30T23:30:02.724Z,97.20
2019-04-30T23:32:23.328Z,97.20
2019-04-30T23:34:52.694Z,97.50
2019-04-30T23:37:22.031Z,97.50
2019-04-30T23:39:51.355Z,97.70
2019-04-30T23:42:20.801Z,98.00
2019-04-30T23:44:50.110Z,98.00
2019-04-30T23:47:19.430Z,98.00
2019-04-30T23:49:48.757Z,98.00
2019-04-30T23:52:18.061Z,97.80
2019-04-30T23:54:47.381Z,98.00
2019-04-30T23:57:16.685Z,97.90
2019-04-30T23:59:46.028Z,97.90
